Flight Track Log - Related Links

Times and Time Zones

All times are in EDT time to prevent confusion due to time zone crossing. See the UAL1054 flight status page for this flight to view local times or setup timezone preferences in your user account.

Time Position Orientation Groundspeed Altitude Reporting Facility
EDT Latitude Longitude Course Direction KTS MPH feet Rate Location/Type
Thu 01:54:32 PM 40.6642 -74.1943 78° East 162 186 1,100  Level FlightAware ADS-B
Thu 01:54:38 PM 40.6606 -74.1957 196° South 169 194 1,300 2,250 Climbing FlightAware ADS-B
Thu 01:54:48 PM 40.6518 -74.1967 185° South 180 207 1,700 2,640 Climbing FlightAware ADS-B
Thu 01:55:03 PM 40.6402 -74.1986 187° South 177 204 2,400 2,286 Climbing FlightAware ADS-B
Thu 01:55:09 PM 40.6352 -74.2015 204° Southwest 184 212 2,500 923 Climbing FlightAware ADS-B
Thu 01:55:16 PM 40.6300 -74.2062 214° Southwest 195 224 2,600 1,600 Climbing FlightAware ADS-B
Thu 01:55:24 PM 40.6249 -74.2123 222° Southwest 199 229 2,900 2,250 Climbing FlightAware ADS-B
Thu 01:55:32 PM 40.6208 -74.2204 236° Southwest 207 238 3,200 2,000 Climbing FlightAware ADS-B
Thu 01:55:42 PM 40.6178 -74.2334 253° West 219 252 3,500 1,765 Climbing FlightAware ADS-B
Thu 01:55:49 PM 40.6176 -74.2430 268° West 231 266 3,700 2,348 Climbing FlightAware ADS-B
Thu 01:56:05 PM 40.6238 -74.2638 291° West 231 266 4,400 3,143 Climbing FlightAware ADS-B
Thu 01:56:10 PM 40.6274 -74.2695 310° West 241 277 4,800 4,000 Climbing FlightAware ADS-B
Thu 01:56:17 PM 40.6334 -74.2762 320° Northwest 241 277 5,200 3,333 Climbing FlightAware ADS-B
Thu 01:56:37 PM 40.6561 -74.2874 339° North 260 299 6,300 3,103 Climbing FlightAware ADS-B
Thu 01:57:15 PM 40.7005 -74.2992 349° North 266 306 8,200 3,167 Climbing FlightAware ADS-B
Thu 01:57:49 PM 40.7375 -74.3290 329° Northwest 269 310 10,100 1,806 Climbing FlightAware ADS-B
Thu 01:58:48 PM 40.7979 -74.3864 324° Northwest 272 313 11,000 568 Climbing FlightAware ADS-B
Thu 01:59:24 PM 40.8350 -74.4220 324° Northwest 313 360 11,000 125 Level FlightAware ADS-B
Thu 02:00:24 PM 40.9080 -74.4900 325° Northwest 322 371 11,200 1,146 Climbing FlightAware ADS-B
Thu 02:00:53 PM 40.9440 -74.5250 324° Northwest 325 374 12,700 2,954 Climbing FlightAware ADS-B
Thu 02:01:29 PM 40.9880 -74.5660 325° Northwest 335 386 14,400 2,571 Climbing FlightAware ADS-B
Thu 02:02:03 PM 41.0310 -74.6070 324° Northwest 345 397 15,700 2,057 Climbing FlightAware ADS-B
Thu 02:02:39 PM 41.0790 -74.6520 325° Northwest 347 399 16,800 2,260 Climbing FlightAware ADS-B
Thu 02:03:20 PM 41.1320 -74.7080 321° Northwest 349 402 18,600 2,704 Climbing FlightAware ADS-B
Thu 02:03:50 PM 41.1600 -74.7630 304° West 350 403 20,000 2,492 Climbing FlightAware ADS-B
Thu 02:04:25 PM 41.1880 -74.8270 300° West 356 410 21,300 2,182 Climbing FlightAware ADS-B
Thu 02:04:56 PM 41.2120 -74.8840 299° West 360 414 22,400 2,341 Climbing FlightAware ADS-B
Thu 02:05:47 PM 41.2570 -74.9850 301° West 362 417 24,500 2,333 Climbing FlightAware ADS-B
Thu 02:06:26 PM 41.2900 -75.0610 300° West 365 420 25,900 1,938 Climbing FlightAware ADS-B
Thu 02:07:23 PM 41.3360 -75.1670 300° West 369 425 27,600 1,660 Climbing FlightAware ADS-B
Thu 02:08:00 PM 41.3670 -75.2380 300° West 373 429 28,500 1,562 Climbing FlightAware ADS-B
Thu 02:08:36 PM 41.4010 -75.3170 300° West 381 438 29,500 1,403 Climbing FlightAware ADS-B
Thu 02:09:17 PM 41.4360 -75.4000 299° West 387 445 30,300 1,167 Climbing FlightAware ADS-B
Thu 02:09:48 PM 41.4630 -75.4620 300° West 391 450 30,900 1,217 Climbing FlightAware ADS-B
Thu 02:10:26 PM 41.4920 -75.5480 294° West 389 448 31,700 1,333 Climbing FlightAware ADS-B
Thu 02:11:00 PM 41.5140 -75.6220 292° West 390 449 32,500 1,371 Climbing FlightAware ADS-B
Thu 02:11:36 PM 41.5380 -75.7050 291° West 392 451 33,300 1,412 Climbing FlightAware ADS-B
Thu 02:12:08 PM 41.5580 -75.7760 291° West 390 449 34,100 1,286 Climbing FlightAware ADS-B
Thu 02:12:46 PM 41.5840 -75.8650 291° West 393 452 34,800 1,013 Climbing FlightAware ADS-B
Thu 02:13:25 PM 41.6090 -75.9530 291° West 395 455 35,400 986 Climbing FlightAware ADS-B
Thu 02:13:59 PM 41.6320 -76.0320 291° West 392 451 36,000 600 Climbing FlightAware ADS-B
Thu 02:14:25 PM 41.6470 -76.0860 290° West 393 452 36,000  Level FlightAware ADS-B
Thu 02:15:16 PM 41.6810 -76.2050 291° West 396 456 36,000  Level FlightAware ADS-B
Thu 02:16:14 PM 41.7190 -76.3400 291° West 396 456 36,000  Level FlightAware ADS-B
Thu 02:17:12 PM 41.7560 -76.4730 290° West 398 458 36,000  Level FlightAware ADS-B
Thu 02:17:58 PM 41.7860 -76.5790 291° West 401 461 36,000  Level FlightAware ADS-B
Thu 02:18:26 PM 41.8030 -76.6420 290° West 403 464 36,000  Level FlightAware ADS-B
Thu 02:18:56 PM 41.8240 -76.7150 291° West 403 464 36,000  Level FlightAware ADS-B
Thu 02:19:29 PM 41.8440 -76.7920 289° West 404 465 36,000  Level FlightAware ADS-B
Thu 02:20:06 PM 41.8660 -76.8700 291° West 406 467 36,000  Level FlightAware ADS-B
Thu 02:20:53 PM 41.8990 -76.9910 290° West 408 470 36,000  Level FlightAware ADS-B
Thu 02:21:36 PM 41.9260 -77.0870 291° West 409 471 36,000  Level FlightAware ADS-B
Thu 02:22:18 PM 41.9540 -77.1930 290° West 410 472 36,000  Level FlightAware ADS-B
Thu 02:23:02 PM 41.9820 -77.2970 290° West 412 474 36,000  Level FlightAware ADS-B
Thu 02:23:32 PM 42.0010 -77.3680 290° West 413 475 36,000  Level FlightAware ADS-B
Thu 02:24:10 PM 42.0260 -77.4620 290° West 415 478 36,000  Level FlightAware ADS-B
Thu 02:24:46 PM 42.0500 -77.5500 290° West 414 476 36,000  Level FlightAware ADS-B
Thu 02:25:16 PM 42.0700 -77.6220 291° West 414 476 36,000  Level FlightAware ADS-B
Thu 02:25:52 PM 42.0940 -77.7100 290° West 413 475 36,000  Level FlightAware ADS-B
Thu 02:26:28 PM 42.1170 -77.7950 290° West 413 475 36,000  Level FlightAware ADS-B
Thu 02:27:10 PM 42.1430 -77.8920 290° West 413 475 36,000  Level FlightAware ADS-B
Thu 02:27:54 PM 42.1730 -78.0030 290° West 414 476 36,000  Level FlightAware ADS-B
Thu 02:29:03 PM 42.2170 -78.1690 290° West 412 474 36,000  Level FlightAware ADS-B
Thu 02:29:51 PM 42.2470 -78.2860 289° West 410 472 36,000  Level FlightAware ADS-B
Thu 02:30:56 PM 42.2740 -78.4470 283° West 406 467 36,000  Level FlightAware ADS-B
Thu 02:31:30 PM 42.2870 -78.5300 282° West 407 468 36,000  Level FlightAware ADS-B
Thu 02:32:01 PM 42.2980 -78.6080 281° West 407 468 36,000  Level FlightAware ADS-B
Thu 02:33:13 PM 42.3250 -78.7860 282° West 409 471 36,000  Level FlightAware ADS-B
Thu 02:33:54 PM 42.3410 -78.8890 282° West 410 472 36,000  Level FlightAware ADS-B
Thu 02:35:12 PM 42.3690 -79.0830 281° West 409 471 36,000  Level FlightAware ADS-B
Thu 02:35:52 PM 42.3840 -79.1850 281° West 409 471 36,000  Level FlightAware ADS-B
Thu 02:36:21 PM 42.3950 -79.2550 282° West 410 472 36,000  Level FlightAware ADS-B
Thu 02:36:54 PM 42.4070 -79.3380 281° West 410 472 36,000  Level FlightAware ADS-B
Thu 02:37:32 PM 42.4210 -79.4350 281° West 411 473 36,000  Level FlightAware ADS-B
Thu 02:38:09 PM 42.4330 -79.5240 280° West 411 473 36,000  Level FlightAware ADS-B
Thu 02:38:44 PM 42.4470 -79.6200 281° West 411 473 36,000  Level FlightAware ADS-B
Thu 02:39:11 PM 42.4560 -79.6860 280° West 411 473 36,000  Level FlightAware ADS-B
Thu 02:40:24 PM 42.4820 -79.8710 281° West 412 474 36,000  Level FlightAware ADS-B
Thu 02:40:57 PM 42.4940 -79.9560 281° West 413 475 36,000  Level FlightAware ADS-B
Thu 02:41:32 PM 42.5060 -80.0450 280° West 412 474 36,000  Level FlightAware ADS-B
Thu 02:42:07 PM 42.5170 -80.1310 280° West 413 475 36,000  Level FlightAware ADS-B
Thu 02:42:37 PM 42.5280 -80.2070 281° West 413 475 36,000  Level FlightAware ADS-B
Thu 02:43:16 PM 42.5410 -80.3060 280° West 413 475 36,000  Level FlightAware ADS-B
Thu 02:43:48 PM 42.5520 -80.3900 280° West 414 476 36,000  Level FlightAware ADS-B
Thu 02:44:26 PM 42.5650 -80.4850 281° West 415 478 36,000  Level FlightAware ADS-B
Thu 02:44:57 PM 42.5750 -80.5650 280° West 415 478 36,000  Level FlightAware ADS-B
Thu 02:45:38 PM 42.5890 -80.6650 281° West 415 478 36,000  Level FlightAware ADS-B
Thu 02:46:21 PM 42.6030 -80.7800 279° West 416 479 36,000  Level FlightAware ADS-B
Thu 02:47:22 PM 42.6230 -80.9360 280° West 417 480 36,000  Level FlightAware ADS-B
Thu 02:47:59 PM 42.6360 -81.0320 280° West 417 480 36,000  Level FlightAware ADS-B
Thu 02:48:53 PM 42.6530 -81.1740 279° West 418 481 36,000  Level FlightAware ADS-B
Thu 02:49:30 PM 42.6650 -81.2670 280° West 418 481 36,000  Level FlightAware ADS-B
Thu 02:50:07 PM 42.6760 -81.3630 279° West 419 482 36,000  Level FlightAware ADS-B
Thu 02:50:48 PM 42.6880 -81.4720 279° West 420 483 36,000  Level FlightAware ADS-B
Thu 02:51:22 PM 42.6980 -81.5600 279° West 420 483 36,000  Level FlightAware ADS-B
Thu 02:52:02 PM 42.7100 -81.6640 279° West 421 484 36,000  Level FlightAware ADS-B
Thu 02:53:15 PM 42.7300 -81.8530 278° West 421 484 36,000  Level FlightAware ADS-B
Thu 02:53:53 PM 42.7410 -81.9490 279° West 422 486 36,000  Level FlightAware ADS-B
Thu 02:54:28 PM 42.7510 -82.0450 278° West 422 486 36,000  Level FlightAware ADS-B
Thu 02:55:24 PM 42.7670 -82.1930 278° West 422 486 36,000  Level FlightAware ADS-B
Thu 02:55:57 PM 42.7750 -82.2750 278° West 422 486 36,000  Level FlightAware ADS-B
Thu 02:56:31 PM 42.7850 -82.3680 278° West 422 486 36,000  Level FlightAware ADS-B
Thu 02:57:19 PM 42.7980 -82.4940 278° West 422 486 36,000  Level FlightAware ADS-B
Thu 02:57:51 PM 42.8060 -82.5760 278° West 422 486 36,000  Level FlightAware ADS-B
Thu 02:58:30 PM 42.8190 -82.6790 280° West 421 484 36,000  Level FlightAware ADS-B
Thu 02:59:14 PM 42.8340 -82.7850 281° West 421 484 36,000  Level FlightAware ADS-B
Thu 03:00:01 PM 42.8510 -82.9120 280° West 420 483 36,000  Level FlightAware ADS-B
Thu 03:01:09 PM 42.8710 -83.0680 280° West 419 482 36,000  Level FlightAware ADS-B
Thu 03:01:47 PM 42.8860 -83.1840 280° West 418 481 36,000  Level FlightAware ADS-B
Thu 03:02:22 PM 42.8980 -83.2790 280° West 418 481 36,000  Level FlightAware ADS-B
Thu 03:03:19 PM 42.9170 -83.4240 280° West 415 478 36,000 57 Level FlightAware ADS-B
Thu 03:04:08 PM 42.9330 -83.5560 279° West 414 476 36,100 491 Climbing FlightAware ADS-B
Thu 03:05:09 PM 42.9530 -83.7120 280° West 418 481 36,900 923 Climbing FlightAware ADS-B
Thu 03:05:52 PM 42.9630 -83.8250 277° West 415 478 37,700 825 Climbing FlightAware ADS-B
Thu 03:06:29 PM 42.9680 -83.9230 274° West 413 475 38,000 237 Climbing FlightAware ADS-B
Thu 03:07:08 PM 42.9730 -84.0230 274° West 410 472 38,000  Level FlightAware ADS-B
Thu 03:07:39 PM 42.9770 -84.0990 274° West 410 472 38,000  Level FlightAware ADS-B
Thu 03:07:56 PM 42.9790 -84.1370 274° West 410 472 38,000  Level FlightAware ADS-B
Thu 03:09:07 PM 42.9880 -84.3280 274° West 411 473 38,000  Level FlightAware ADS-B
Thu 03:09:41 PM 42.9920 -84.4130 274° West 412 474 38,000  Level FlightAware ADS-B
Thu 03:10:26 PM 42.9970 -84.5320 273° West 412 474 38,000  Level FlightAware ADS-B
Thu 03:11:02 PM 43.0020 -84.6280 274° West 413 475 38,000  Level FlightAware ADS-B
Thu 03:11:35 PM 43.0050 -84.7060 273° West 413 475 38,000  Level FlightAware ADS-B
Thu 03:12:14 PM 43.0100 -84.8090 274° West 414 476 38,000  Level FlightAware ADS-B
Thu 03:12:53 PM 43.0140 -84.9150 273° West 414 476 38,000  Level FlightAware ADS-B
Thu 03:13:31 PM 43.0180 -85.0110 273° West 415 478 38,000  Level FlightAware ADS-B
Thu 03:14:11 PM 43.0220 -85.1120 273° West 415 478 38,000  Level FlightAware ADS-B
Thu 03:14:46 PM 43.0260 -85.2100 273° West 415 478 38,000  Level FlightAware ADS-B
Thu 03:15:32 PM 43.0310 -85.3290 273° West 415 478 38,000  Level FlightAware ADS-B
Thu 03:15:54 PM 43.0330 -85.3860 273° West 416 479 38,000  Level FlightAware ADS-B
Thu 03:16:39 PM 43.0380 -85.5050 273° West 415 478 38,000  Level FlightAware ADS-B
Thu 03:17:09 PM 43.0410 -85.5760 273° West 416 479 38,000  Level FlightAware ADS-B
Thu 03:17:47 PM 43.0450 -85.6820 273° West 416 479 38,000  Level FlightAware ADS-B
Thu 03:18:19 PM 43.0480 -85.7650 273° West 415 478 38,000  Level FlightAware ADS-B
Thu 03:18:56 PM 43.0510 -85.8600 273° West 415 478 38,000  Level FlightAware ADS-B
Thu 03:19:39 PM 43.0550 -85.9710 273° West 415 478 38,000  Level FlightAware ADS-B
Thu 03:20:30 PM 43.0600 -86.1090 273° West 414 476 38,000  Level FlightAware ADS-B
Thu 03:21:45 PM 43.0660 -86.3060 272° West 415 478 38,000  Level FlightAware ADS-B
Thu 03:22:53 PM 43.0720 -86.4840 273° West 415 478 38,000  Level FlightAware ADS-B
Thu 03:23:23 PM 43.0740 -86.5600 272° West 416 479 38,000  Level FlightAware ADS-B
Thu 03:24:02 PM 43.0770 -86.6650 272° West 416 479 38,000  Level FlightAware ADS-B
Thu 03:24:45 PM 43.0810 -86.7800 273° West 416 479 38,000  Level FlightAware ADS-B
Thu 03:25:26 PM 43.0840 -86.8860 272° West 417 480 38,000  Level FlightAware ADS-B
Thu 03:26:04 PM 43.0870 -86.9860 272° West 418 481 38,000  Level FlightAware ADS-B
Thu 03:26:46 PM 43.0900 -87.0980 272° West 418 481 38,000  Level FlightAware ADS-B
Thu 03:27:25 PM 43.0920 -87.2000 272° West 419 482 38,000  Level FlightAware ADS-B
Thu 03:28:02 PM 43.0950 -87.2990 272° West 419 482 38,000  Level FlightAware ADS-B
Thu 03:28:37 PM 43.0970 -87.3890 272° West 419 482 38,000  Level FlightAware ADS-B
Thu 03:29:29 PM 43.1000 -87.5260 272° West 420 483 38,000  Level FlightAware ADS-B
Thu 03:29:59 PM 43.1020 -87.6050 272° West 420 483 38,000  Level FlightAware ADS-B
Thu 03:30:37 PM 43.1040 -87.7050 272° West 420 483 38,000  Level FlightAware ADS-B
Thu 03:31:13 PM 43.1060 -87.7970 272° West 420 483 38,000  Level FlightAware ADS-B
Thu 03:32:25 PM 43.1100 -87.9930 272° West 420 483 38,000  Level FlightAware ADS-B
Thu 03:32:59 PM 43.1120 -88.0860 272° West 421 484 38,000  Level FlightAware ADS-B
Thu 03:33:27 PM 43.1130 -88.1590 271° West 421 484 38,000  Level FlightAware ADS-B
Thu 03:34:04 PM 43.1150 -88.2580 272° West 422 486 38,000  Level FlightAware ADS-B
Thu 03:34:42 PM 43.1160 -88.3540 271° West 423 487 38,000  Level FlightAware ADS-B
Thu 03:35:26 PM 43.1130 -88.4740 268° West 423 487 38,000  Level FlightAware ADS-B
Thu 03:36:03 PM 43.1120 -88.5710 269° West 424 488 38,000  Level FlightAware ADS-B
Thu 03:36:42 PM 43.1100 -88.6790 269° West 424 488 38,000  Level FlightAware ADS-B
Thu 03:37:15 PM 43.1090 -88.7670 269° West 423 487 38,000  Level FlightAware ADS-B
Thu 03:37:47 PM 43.1070 -88.8460 268° West 423 487 38,000  Level FlightAware ADS-B
Thu 03:38:27 PM 43.1050 -88.9540 269° West 423 487 38,000  Level FlightAware ADS-B
Thu 03:39:14 PM 43.1030 -89.0800 269° West 419 482 38,000  Level FlightAware ADS-B
Thu 03:39:42 PM 43.1020 -89.1450 269° West 418 481 38,000  Level FlightAware ADS-B
Thu 03:40:08 PM 43.1000 -89.2230 268° West 417 480 38,000  Level FlightAware ADS-B
Thu 03:41:07 PM 43.0970 -89.3770 269° West 416 479 38,000  Level FlightAware ADS-B
Thu 03:41:45 PM 43.0950 -89.4760 268° West 415 478 38,000  Level FlightAware ADS-B
Thu 03:42:15 PM 43.0930 -89.5500 268° West 415 478 38,000  Level FlightAware ADS-B
Thu 03:42:53 PM 43.0910 -89.6570 269° West 414 476 38,000  Level FlightAware ADS-B
Thu 03:43:28 PM 43.0890 -89.7450 268° West 414 476 38,000  Level FlightAware ADS-B
Thu 03:44:00 PM 43.0860 -89.8320 267° West 413 475 38,000  Level FlightAware ADS-B
Thu 03:45:07 PM 43.0820 -90.0030 268° West 415 478 38,000  Level FlightAware ADS-B
Thu 03:45:57 PM 43.0780 -90.1400 268° West 414 476 38,000  Level FlightAware ADS-B
Thu 03:46:28 PM 43.0760 -90.2170 268° West 414 476 38,000  Level FlightAware ADS-B
Thu 03:46:58 PM 43.0730 -90.2970 267° West 413 475 38,000  Level FlightAware ADS-B
Thu 03:47:34 PM 43.0700 -90.3910 268° West 412 474 38,000  Level FlightAware ADS-B
Thu 03:48:10 PM 43.0670 -90.4840 268° West 413 475 38,000  Level FlightAware ADS-B
Thu 03:48:52 PM 43.0640 -90.5920 268° West 413 475 38,000  Level FlightAware ADS-B
Thu 03:49:15 PM 43.0620 -90.6550 268° West 412 474 38,000  Level FlightAware ADS-B
Thu 03:49:56 PM 43.0580 -90.7580 267° West 412 474 38,000  Level FlightAware ADS-B
Thu 03:50:28 PM 43.0762 -90.2032 87° East 414 476 38,000  Level FlightAware ADS-B (LPVM)
Thu 03:51:20 PM 43.0510 -90.9780 268° West 412 474 38,000  Level FlightAware ADS-B
Thu 03:52:25 PM 43.0440 -91.1470 267° West 413 475 38,000  Level FlightAware ADS-B
Thu 03:52:54 PM 43.0410 -91.2230 267° West 413 475 38,000  Level FlightAware ADS-B
Thu 03:53:24 PM 43.0380 -91.3010 267° West 412 474 38,000  Level FlightAware ADS-B
Thu 03:53:53 PM 43.0350 -91.3770 267° West 413 475 38,000  Level FlightAware ADS-B
Thu 03:54:59 PM 43.0280 -91.5470 267° West 413 475 38,000  Level FlightAware ADS-B
Thu 03:55:31 PM 43.0248 -91.6308 267° West 413 475 38,000  Level FlightAware ADS-B (LPVM)
Thu 03:56:11 PM 43.0200 -91.7330 266° West 412 474 38,000  Level FlightAware ADS-B
Thu 03:56:45 PM 43.0166 -91.8155 267° West 413 475 38,000  Level FlightAware ADS-B (LPVM)
Thu 03:57:32 PM 43.0113 -91.9295 266° West 413 475 38,000  Level FlightAware ADS-B (LPVM)
Thu 03:58:28 PM 43.0040 -92.0900 266° West 411 473 38,000  Level FlightAware ADS-B
Thu 03:58:56 PM 43.0000 -92.1610 266° West 411 473 38,000  Level FlightAware ADS-B
Thu 03:59:10 PM 42.9984 -92.1983 267° West 412 474 38,000  Level FlightAware ADS-B (LPVM)
Thu 03:59:56 PM 42.9941 -92.2868 266° West 411 473 38,000  Level FlightAware ADS-B (LPVM)
Thu 04:00:43 PM 42.9860 -92.4400 266° West 410 472 38,000  Level FlightAware ADS-B
Thu 04:01:14 PM 42.9820 -92.5180 266° West 411 473 38,000  Level FlightAware ADS-B
Thu 04:01:37 PM 42.9792 -92.5790 266° West 411 473 38,000  Level FlightAware ADS-B (LPVM)
Thu 04:02:23 PM 42.9730 -92.6970 266° West 411 473 38,000  Level FlightAware ADS-B
Thu 04:02:38 PM 42.9706 -92.7372 265° West 411 473 38,000  Level FlightAware ADS-B (LPVM)
Thu 04:03:17 PM 42.9653 -92.8336 266° West 411 473 38,000  Level FlightAware ADS-B (LPVM)
Thu 04:03:57 PM 42.9593 -92.9404 266° West 411 473 38,000  Level FlightAware ADS-B (LPVM)
Thu 04:04:38 PM 42.9533 -93.0451 266° West 411 473 38,000  Level FlightAware ADS-B (LPVM)
Thu 04:05:16 PM 42.9480 -93.1410 266° West 410 472 38,000  Level FlightAware ADS-B
Thu 04:05:57 PM 42.9410 -93.2480 265° West 409 471 38,000  Level FlightAware ADS-B
Thu 04:06:36 PM 42.9350 -93.3460 265° West 408 470 38,000  Level FlightAware ADS-B
Thu 04:07:08 PM 42.9300 -93.4270 265° West 408 470 38,000  Level FlightAware ADS-B
Thu 04:07:40 PM 42.9250 -93.5090 265° West 407 468 38,000  Level FlightAware ADS-B
Thu 04:08:09 PM 42.9200 -93.5820 265° West 407 468 38,000  Level FlightAware ADS-B
Thu 04:08:53 PM 42.9130 -93.6980 265° West 406 467 38,000  Level FlightAware ADS-B
Thu 04:09:27 PM 42.9070 -93.7840 265° West 406 467 38,000  Level FlightAware ADS-B
Thu 04:10:18 PM 42.8992 -93.9083 265° West 407 468 38,000  Level FlightAware ADS-B (LPVM)
Thu 04:11:12 PM 42.8901 -94.0407 265° West 406 467 38,000  Level FlightAware ADS-B (LPVM)
Thu 04:11:46 PM 42.8830 -94.1370 264° West 405 466 38,000  Level FlightAware ADS-B
Thu 04:11:52 PM 42.8822 -94.1546 266° West 406 467 38,000  Level FlightAware ADS-B (LPVM)
Thu 04:12:35 PM 42.8747 -94.2635 265° West 406 467 38,000  Level FlightAware ADS-B (LPVM)
Thu 04:13:07 PM 42.8690 -94.3420 264° West 403 464 38,000  Level FlightAware ADS-B
Thu 04:13:29 PM 42.8659 -94.3860 265° West 403 464 38,000  Level FlightAware ADS-B (LPVM)
Thu 04:13:49 PM 42.8613 -94.4500 264° West 403 464 38,000  Level FlightAware ADS-B
Thu 04:14:04 PM 42.8585 -94.4878 264° West 402 463 38,000  Level FlightAware ADS-B (LPVM)
Thu 04:14:38 PM 42.8520 -94.5720 264° West 401 461 38,000  Level FlightAware ADS-B
Thu 04:15:19 PM 42.8450 -94.6760 265° West 401 461 38,000  Level FlightAware ADS-B
Thu 04:15:50 PM 42.8390 -94.7490 264° West 401 461 38,000  Level FlightAware ADS-B
Thu 04:16:24 PM 42.8323 -94.8385 264° West 401 461 38,000  Level FlightAware ADS-B (LPVM)
Thu 04:17:07 PM 42.8240 -94.9450 264° West 399 459 38,000  Level FlightAware ADS-B
Thu 04:17:44 PM 42.8170 -95.0350 264° West 398 458 38,000  Level FlightAware ADS-B
Thu 04:18:16 PM 42.8110 -95.1140 264° West 397 457 38,000  Level FlightAware ADS-B
Thu 04:18:34 PM 42.8068 -95.1627 263° West 396 456 38,000  Level FlightAware ADS-B (LPVM)
Thu 04:19:17 PM 42.7984 -95.2673 264° West 391 450 38,000  Level FlightAware ADS-B (LPVM)
Thu 04:19:56 PM 42.7907 -95.3625 264° West 386 444 38,000  Level FlightAware ADS-B (LPVM)
Thu 04:20:33 PM 42.7835 -95.4516 264° West 382 440 38,000  Level FlightAware ADS-B (LPVM)
Thu 04:21:06 PM 42.7770 -95.5260 263° West 381 438 38,000  Level FlightAware ADS-B
Thu 04:21:34 PM 42.7713 -95.5965 264° West 380 437 38,000  Level FlightAware ADS-B (LPVM)
Thu 04:22:51 PM 42.7560 -95.7760 263° West 378 435 38,000  Level FlightAware ADS-B
Thu 04:23:47 PM 42.7450 -95.9080 264° West 378 435 38,000  Level FlightAware ADS-B
Thu 04:24:22 PM 42.7370 -95.9910 263° West 378 435 38,000  Level FlightAware ADS-B
Thu 04:25:22 PM 42.7250 -96.1320 263° West 379 436 38,000  Level FlightAware ADS-B
Thu 04:25:59 PM 42.7170 -96.2190 263° West 380 437 38,000  Level FlightAware ADS-B
Thu 04:26:30 PM 42.7110 -96.2890 263° West 381 438 38,000  Level FlightAware ADS-B
Thu 04:27:09 PM 42.7020 -96.3840 263° West 382 440 38,000  Level FlightAware ADS-B
Thu 04:28:22 PM 42.6860 -96.5620 263° West 385 443 38,000  Level FlightAware ADS-B
Thu 04:28:59 PM 42.6770 -96.6510 262° West 388 447 38,000  Level FlightAware ADS-B
Thu 04:29:30 PM 42.6710 -96.7250 264° West 390 449 38,000  Level FlightAware ADS-B
Thu 04:30:30 PM 42.6570 -96.8710 263° West 392 451 38,000  Level FlightAware ADS-B
Thu 04:31:00 PM 42.6500 -96.9440 263° West 394 453 38,000  Level FlightAware ADS-B
Thu 04:31:56 PM 42.6360 -97.0820 262° West 397 457 38,000  Level FlightAware ADS-B
Thu 04:32:25 PM 42.6290 -97.1540 262° West 399 459 38,000  Level FlightAware ADS-B
Thu 04:33:24 PM 42.6150 -97.2990 263° West 402 463 38,000  Level FlightAware ADS-B
Thu 04:34:07 PM 42.6050 -97.4060 263° West 404 465 38,000  Level FlightAware ADS-B
Thu 04:34:39 PM 42.5970 -97.4870 262° West 405 466 38,000  Level FlightAware ADS-B
Thu 04:35:12 PM 42.5880 -97.5710 262° West 407 468 38,000  Level FlightAware ADS-B
Thu 04:35:44 PM 42.5800 -97.6480 262° West 408 470 38,000  Level FlightAware ADS-B
Thu 04:36:22 PM 42.5700 -97.7460 262° West 409 471 38,000  Level FlightAware ADS-B
Thu 04:36:53 PM 42.5620 -97.8270 262° West 410 472 38,000  Level FlightAware ADS-B
Thu 04:37:26 PM 42.5530 -97.9090 262° West 410 472 38,000  Level FlightAware ADS-B
Thu 04:37:54 PM 42.5460 -97.9820 263° West 410 472 38,000  Level FlightAware ADS-B
Thu 04:38:29 PM 42.5370 -98.0690 262° West 411 473 38,000  Level FlightAware ADS-B
Thu 04:39:27 PM 42.5210 -98.2170 262° West 411 473 38,000  Level FlightAware ADS-B
Thu 04:40:02 PM 42.5120 -98.3060 262° West 411 473 38,000  Level FlightAware ADS-B
Thu 04:40:39 PM 42.5020 -98.4000 262° West 411 473 38,000  Level FlightAware ADS-B
Thu 04:41:50 PM 42.4820 -98.5810 262° West 410 472 38,000  Level FlightAware ADS-B
Thu 04:42:27 PM 42.4720 -98.6720 262° West 413 475 38,000  Level FlightAware ADS-B
Thu 04:43:28 PM 42.4500 -98.8030 257° West 413 475 38,000  Level FlightAware ADS-B
Thu 04:44:14 PM 42.3950 -98.9320 240° Southwest 424 488 38,000  Level FlightAware ADS-B
Thu 04:44:54 PM 42.3680 -99.0140 246° West 424 488 38,000  Level FlightAware ADS-B
Thu 04:45:56 PM 42.3260 -99.1420 246° West 424 488 38,000  Level FlightAware ADS-B
Thu 04:46:32 PM 42.3020 -99.2160 246° West 424 488 38,000  Level FlightAware ADS-B
Thu 04:47:08 PM 42.2770 -99.2900 245° Southwest 424 488 38,000  Level FlightAware ADS-B
Thu 04:48:09 PM 42.2360 -99.4160 246° West 424 488 38,000  Level FlightAware ADS-B
Thu 04:49:11 PM 42.1940 -99.5430 246° West 424 488 38,000  Level FlightAware ADS-B
Thu 04:49:47 PM 42.1690 -99.6170 246° West 424 488 38,000  Level FlightAware ADS-B
Thu 04:50:11 PM 42.1530 -99.6670 247° West 424 488 38,000  Level FlightAware ADS-B
Thu 04:50:47 PM 42.1290 -99.7410 246° West 424 488 38,000  Level FlightAware ADS-B
Thu 04:51:23 PM 42.1040 -99.8150 246° West 424 488 38,000  Level FlightAware ADS-B
Thu 04:51:47 PM 42.0880 -99.8640 246° West 424 488 38,000  Level FlightAware ADS-B
Thu 04:52:25 PM 42.0620 -99.9420 246° West 424 488 38,000  Level FlightAware ADS-B
Thu 04:53:13 PM 42.0300 -100.0400 246° West 424 488 38,000  Level FlightAware ADS-B
Thu 04:54:02 PM 41.9960 -100.1410 246° West 424 488 38,000  Level FlightAware ADS-B
Thu 04:54:33 PM 41.9072 -100.4025 246° West 428 493 38,000  Level Denver Center
Thu 05:00:23 PM 41.6190 -101.2550 246° West 430 495 38,000  Level FlightAware ADS-B
Thu 05:00:50 PM 41.5890 -101.3440 246° West 429 494 38,000  Level FlightAware ADS-B
Thu 05:01:30 PM 41.5550 -101.4430 245° Southwest 429 494 38,000  Level FlightAware ADS-B
Thu 05:02:33 PM 41.5020 -101.5940 245° Southwest 429 494 38,000  Level FlightAware ADS-B
Thu 05:03:02 PM 41.4790 -101.6620 246° West 429 494 38,000  Level FlightAware ADS-B
Thu 05:03:41 PM 41.4450 -101.7560 244° Southwest 429 494 38,000  Level FlightAware ADS-B
Thu 05:04:42 PM 41.3940 -101.9010 245° Southwest 428 493 38,000  Level FlightAware ADS-B
Thu 05:05:22 PM 41.3600 -101.9960 245° Southwest 430 495 38,000  Level FlightAware ADS-B
Thu 05:05:51 PM 41.3360 -102.0650 245° Southwest 430 495 38,000  Level FlightAware ADS-B
Thu 05:06:22 PM 41.3090 -102.1390 244° Southwest 431 496 38,000  Level FlightAware ADS-B
Thu 05:06:54 PM 41.2820 -102.2160 245° Southwest 432 497 38,000  Level FlightAware ADS-B
Thu 05:07:50 PM 41.2340 -102.3510 245° Southwest 435 501 38,000  Level FlightAware ADS-B
Thu 05:08:22 PM 41.2060 -102.4290 245° Southwest 436 502 38,000  Level FlightAware ADS-B
Thu 05:08:51 PM 41.1800 -102.4990 244° Southwest 437 503 38,000  Level FlightAware ADS-B
Thu 05:09:53 PM 41.1260 -102.6490 244° Southwest 438 504 38,000  Level FlightAware ADS-B
Thu 05:10:42 PM 41.0840 -102.7650 244° Southwest 439 505 38,000  Level FlightAware ADS-B
Thu 05:11:50 PM 41.0230 -102.9310 244° Southwest 441 507 38,000  Level FlightAware ADS-B
Thu 05:12:25 PM 40.9910 -103.0170 244° Southwest 442 509 38,000  Level FlightAware ADS-B
Thu 05:12:49 PM 40.9700 -103.0760 245° Southwest 442 509 38,000  Level FlightAware ADS-B
Thu 05:13:26 PM 40.9370 -103.1640 244° Southwest 443 510 38,000  Level FlightAware ADS-B
Thu 05:13:58 PM 40.9080 -103.2420 244° Southwest 442 509 38,000  Level FlightAware ADS-B
Thu 05:14:51 PM 40.8600 -103.3710 244° Southwest 441 507 38,000  Level FlightAware ADS-B
Thu 05:15:51 PM 40.8070 -103.5130 244° Southwest 438 504 38,000  Level FlightAware ADS-B
Thu 05:16:23 PM 40.7770 -103.5910 243° Southwest 437 503 38,000  Level FlightAware ADS-B
Thu 05:16:59 PM 40.7450 -103.6770 244° Southwest 437 503 38,000  Level FlightAware ADS-B
Thu 05:17:59 PM 40.6910 -103.8200 244° Southwest 435 501 38,000  Level FlightAware ADS-B
Thu 05:18:44 PM 40.6510 -103.9260 244° Southwest 434 499 38,000  Level FlightAware ADS-B
Thu 05:19:31 PM 40.6090 -104.0370 244° Southwest 434 499 38,000  Level FlightAware ADS-B
Thu 05:19:56 PM 40.5870 -104.0940 243° Southwest 433 498 38,000  Level FlightAware ADS-B
Thu 05:20:53 PM 40.5350 -104.2290 243° Southwest 432 497 38,000  Level FlightAware ADS-B
Thu 05:21:37 PM 40.4940 -104.3330 243° Southwest 432 497 38,000  Level FlightAware ADS-B
Thu 05:22:06 PM 40.4690 -104.3980 243° Southwest 432 497 38,000  Level FlightAware ADS-B
Thu 05:22:40 PM 40.4380 -104.4790 243° Southwest 432 497 38,000  Level FlightAware ADS-B
Thu 05:23:16 PM 40.4060 -104.5610 243° Southwest 432 497 38,000  Level FlightAware ADS-B
Thu 05:23:40 PM 40.3830 -104.6180 242° Southwest 432 497 38,000  Level FlightAware ADS-B
Thu 05:24:06 PM 40.3600 -104.6790 244° Southwest 432 497 38,000  Level FlightAware ADS-B
Thu 05:24:42 PM 40.3270 -104.7610 242° Southwest 433 498 38,000  Level FlightAware ADS-B
Thu 05:25:45 PM 40.2688 -104.9092 243° Southwest 436 502 38,000  Level FlightAware ADS-B
Thu 05:26:35 PM 40.2220 -105.0270 243° Southwest 438 504 38,000  Level FlightAware ADS-B
Thu 05:27:25 PM 40.1755 -105.1440 243° Southwest 440 506 38,000  Level FlightAware ADS-B
Thu 05:27:55 PM 40.1473 -105.2141 242° Southwest 441 507 38,000  Level FlightAware ADS-B
Thu 05:28:34 PM 40.1110 -105.3050 242° Southwest 441 507 38,000  Level FlightAware ADS-B
Thu 05:29:12 PM 40.0752 -105.3936 242° Southwest 443 510 38,000  Level FlightAware ADS-B
Thu 05:30:17 PM 40.0120 -105.5500 242° Southwest 443 510 38,000  Level FlightAware ADS-B
Thu 05:30:58 PM 39.9740 -105.6430 242° Southwest 443 510 38,000  Level FlightAware ADS-B
Thu 05:31:30 PM 39.9430 -105.7190 242° Southwest 443 510 38,000  Level FlightAware ADS-B
Thu 05:31:59 PM 39.9145 -105.7886 242° Southwest 443 510 38,000  Level FlightAware ADS-B
Thu 05:32:45 PM 39.8700 -105.8970 242° Southwest 441 507 38,000  Level FlightAware ADS-B
Thu 05:32:57 PM 39.8582 -105.9257 242° Southwest 440 506 38,000  Level FlightAware ADS-B
Thu 05:33:27 PM 39.8318 -105.9897 242° Southwest 439 505 38,000  Level FlightAware ADS-B
Thu 05:34:10 PM 39.7890 -106.0933 242° Southwest 438 504 38,000  Level FlightAware ADS-B
Thu 05:34:41 PM 39.7587 -106.1664 242° Southwest 438 504 38,000  Level FlightAware ADS-B
Thu 05:35:25 PM 39.7173 -106.2660 242° Southwest 437 503 38,000  Level FlightAware ADS-B
Thu 05:35:59 PM 39.6849 -106.3438 242° Southwest 437 503 38,000  Level FlightAware ADS-B
Thu 05:36:38 PM 39.6467 -106.4349 242° Southwest 437 503 38,000  Level FlightAware ADS-B
Thu 05:37:14 PM 39.6127 -106.5156 241° Southwest 437 503 38,000  Level FlightAware ADS-B
Thu 05:37:49 PM 39.5780 -106.5970 241° Southwest 436 502 38,000  Level FlightAware ADS-B
Thu 05:37:57 PM 39.5702 -106.6168 243° Southwest 436 502 38,000  Level FlightAware ADS-B
Thu 05:38:27 PM 39.5417 -106.6845 241° Southwest 435 501 38,000  Level FlightAware ADS-B
Thu 05:38:59 PM 39.5113 -106.7562 241° Southwest 436 502 38,000  Level FlightAware ADS-B
Thu 05:39:29 PM 39.4818 -106.8261 241° Southwest 436 502 38,000  Level FlightAware ADS-B
Thu 05:39:59 PM 39.4550 -106.8901 242° Southwest 436 502 38,000  Level FlightAware ADS-B
Thu 05:40:09 PM 39.4445 -106.9193 245° Southwest 435 501 38,000  Level FlightAware ADS-B (KGUC)
Thu 05:40:39 PM 39.4241 -106.9901 250° West 437 503 38,000  Level FlightAware ADS-B
Thu 05:41:15 PM 39.4023 -107.0762 252° West 437 503 38,000  Level FlightAware ADS-B (KGUC)
Thu 05:41:47 PM 39.3940 -107.1094 252° West 436 502 38,000  Level FlightAware ADS-B (KGUC)
Thu 05:42:22 PM 39.3597 -107.2460 252° West 436 502 38,000  Level FlightAware ADS-B
Thu 05:42:52 PM 39.3408 -107.3203 252° West 436 502 38,000  Level FlightAware ADS-B
Thu 05:43:29 PM 39.3176 -107.4111 252° West 436 502 38,000  Level FlightAware ADS-B
Thu 05:44:03 PM 39.2964 -107.4937 252° West 435 501 38,000  Level FlightAware ADS-B
Thu 05:44:34 PM 39.2766 -107.5708 252° West 434 499 38,000  Level FlightAware ADS-B
Thu 05:45:07 PM 39.2558 -107.6511 252° West 433 498 38,000  Level FlightAware ADS-B
Thu 05:45:37 PM 39.2368 -107.7249 252° West 433 498 38,000  Level FlightAware ADS-B
Thu 05:46:08 PM 39.2167 -107.8022 251° West 433 498 38,000  Level FlightAware ADS-B
Thu 05:46:40 PM 39.1968 -107.8792 252° West 432 497 38,000  Level FlightAware ADS-B
Thu 05:47:10 PM 39.1776 -107.9532 252° West 431 496 38,000  Level FlightAware ADS-B
Thu 05:47:41 PM 39.1583 -108.0265 251° West 431 496 38,000  Level FlightAware ADS-B
Thu 05:48:11 PM 39.1391 -108.1003 251° West 430 495 38,000  Level FlightAware ADS-B
Thu 05:48:41 PM 39.1204 -108.1716 251° West 431 496 38,000  Level FlightAware ADS-B
Thu 05:49:11 PM 39.1016 -108.2432 251° West 431 496 38,000  Level FlightAware ADS-B
Thu 05:49:48 PM 39.0779 -108.3331 251° West 431 496 38,000  Level FlightAware ADS-B (KGUC)
Thu 05:50:22 PM 39.0564 -108.4140 251° West 431 496 38,000  Level FlightAware ADS-B
Thu 05:50:56 PM 39.0334 -108.5007 251° West 431 496 38,000  Level FlightAware ADS-B (KGUC)
Thu 05:51:36 PM 39.0078 -108.5969 251° West 431 496 38,000  Level FlightAware ADS-B (KGUC)
Thu 05:52:09 PM 38.9879 -108.6714 251° West 431 496 38,000  Level FlightAware ADS-B (KGUC)
Thu 05:52:47 PM 38.9620 -108.7681 251° West 433 498 38,000  Level FlightAware ADS-B (KGUC)
Thu 05:53:23 PM 38.9385 -108.8553 251° West 433 498 38,000  Level FlightAware ADS-B (KGUC)
Thu 05:53:55 PM 38.9184 -108.9303 251° West 433 498 38,000  Level FlightAware ADS-B (KGUC)
Thu 05:54:26 PM 38.8973 -109.0084 251° West 433 498 38,000  Level FlightAware ADS-B
Thu 05:54:56 PM 38.8774 -109.0819 251° West 433 498 38,000  Level FlightAware ADS-B
Thu 05:55:27 PM 38.8569 -109.1569 251° West 433 498 38,000  Level FlightAware ADS-B
Thu 05:56:18 PM 38.8233 -109.2803 251° West 433 498 38,000  Level FlightAware ADS-B
Thu 05:56:49 PM 38.8032 -109.3538 251° West 434 499 38,000  Level FlightAware ADS-B
Thu 05:57:24 PM 38.7814 -109.4331 251° West 434 499 38,000  Level FlightAware ADS-B
Thu 05:58:03 PM 38.7541 -109.5325 251° West 433 498 38,000  Level FlightAware ADS-B
Thu 05:58:34 PM 38.7345 -109.6032 250° West 433 498 38,000  Level FlightAware ADS-B
Thu 05:59:04 PM 38.7138 -109.6800 251° West 433 498 38,000  Level FlightAware ADS-B
Thu 05:59:26 PM 38.7071 -109.7346 261° West 435 501 38,000  Level FlightAware ADS-B
Thu 06:00:17 PM 38.7310 -109.8590 284° West 443 510 38,000  Level FlightAware ADS-B
Thu 06:00:46 PM 38.7700 -109.9210 309° West 449 517 38,000  Level FlightAware ADS-B
Thu 06:01:21 PM 38.8230 -109.9870 316° Northwest 451 519 38,000  Level FlightAware ADS-B
Thu 06:01:50 PM 38.8650 -110.0410 315° West 451 519 38,000  Level FlightAware ADS-B
Thu 06:02:38 PM 38.9369 -110.1321 315° West 453 521 38,000  Level FlightAware ADS-B
Thu 06:03:20 PM 38.9997 -110.2125 315° West 453 521 38,000  Level FlightAware ADS-B
Thu 06:04:23 PM 39.0888 -110.3343 313° West 451 519 38,000  Level FlightAware ADS-B
Thu 06:05:00 PM 39.1179 -110.4262 292° West 447 514 38,000  Level FlightAware ADS-B
Thu 06:05:58 PM 39.1486 -110.5762 285° West 448 516 38,000  Level FlightAware ADS-B
Thu 06:07:05 PM 39.1740 -110.7120 284° West 447 514 38,000  Level FlightAware ADS-B
Thu 06:09:02 PM 39.1800 -111.0480 271° West 441 507 38,000  Level FlightAware ADS-B
Thu 06:09:23 PM 39.1580 -111.0960 239° Southwest 438 504 38,000  Level FlightAware ADS-B
Thu 06:10:18 PM 39.0780 -111.2020 226° Southwest 438 504 38,000  Level FlightAware ADS-B
Thu 06:10:48 PM 39.0344 -111.2570 224° Southwest 438 504 38,000  Level FlightAware ADS-B
Thu 06:11:32 PM 38.9711 -111.3380 225° Southwest 438 504 38,000  Level FlightAware ADS-B
Thu 06:11:48 PM 38.9505 -111.3638 224° Southwest 438 504 38,000  Level FlightAware ADS-B
Thu 06:12:11 PM 38.9156 -111.4080 225° Southwest 438 504 38,000  Level FlightAware ADS-B
Thu 06:12:24 PM 38.8962 -111.4325 225° Southwest 438 504 38,000  Level FlightAware ADS-B
Thu 06:12:44 PM 38.8674 -111.4690 225° Southwest 438 504 38,000  Level FlightAware ADS-B
Thu 06:13:01 PM 38.8439 -111.4987 224° Southwest 438 504 38,000  Level FlightAware ADS-B
Thu 06:13:16 PM 38.8214 -111.5270 224° Southwest 438 504 38,000  Level FlightAware ADS-B
Thu 06:13:52 PM 38.7701 -111.5920 225° Southwest 437 503 38,000  Level FlightAware ADS-B
Thu 06:14:26 PM 38.7211 -111.6530 224° Southwest 437 503 38,000  Level FlightAware ADS-B
Thu 06:15:18 PM 38.6740 -111.7090 223° Southwest 437 503 38,000  Level FlightAware ADS-B
Thu 06:16:30 PM 38.5850 -111.8190 224° Southwest 437 503 38,000  Level FlightAware ADS-B
Thu 06:17:18 PM 38.5250 -111.8920 224° Southwest 437 503 38,000  Level FlightAware ADS-B
Thu 06:18:06 PM 38.4660 -111.9660 224° Southwest 437 503 38,000  Level FlightAware ADS-B
Thu 06:19:06 PM 38.3920 -112.0570 224° Southwest 437 503 38,000  Level FlightAware ADS-B
Thu 06:20:10 PM 38.3130 -112.1540 224° Southwest 437 503 38,000  Level FlightAware ADS-B
Thu 06:20:45 PM 38.2690 -112.2080 224° Southwest 437 503 38,000  Level FlightAware ADS-B
Thu 06:21:09 PM 38.2400 -112.2440 224° Southwest 437 503 38,000  Level FlightAware ADS-B
Thu 06:22:23 PM 38.1480 -112.3570 224° Southwest 437 503 38,000  Level FlightAware ADS-B
Thu 06:23:00 PM 38.1030 -112.4130 224° Southwest 437 503 38,000  Level FlightAware ADS-B
Thu 06:26:15 PM 37.7190 -112.8820 224° Southwest 422 486 38,000  Level FlightAware ADS-B
Thu 06:26:52 PM 37.6740 -112.9350 223° Southwest 422 486 38,000  Level FlightAware ADS-B
Thu 06:27:24 PM 37.6140 -113.0080 224° Southwest 420 483 38,000  Level FlightAware ADS-B
Thu 06:28:15 PM 37.5450 -113.0900 223° Southwest 421 484 38,000  Level FlightAware ADS-B
Thu 06:28:54 PM 37.4930 -113.1520 223° Southwest 420 483 38,000  Level FlightAware ADS-B
Thu 06:29:46 PM 37.4300 -113.2260 223° Southwest 420 483 38,000  Level FlightAware ADS-B
Thu 06:30:29 PM 37.3520 -113.3180 223° Southwest 419 482 38,000  Level FlightAware ADS-B
Thu 06:31:24 PM 37.2740 -113.4100 223° Southwest 419 482 38,000  Level FlightAware ADS-B
Thu 06:32:14 PM 37.2060 -113.4900 223° Southwest 420 483 38,000  Level FlightAware ADS-B
Thu 06:32:44 PM 37.1630 -113.5410 223° Southwest 419 482 38,000  Level FlightAware ADS-B
Thu 06:33:34 PM 37.0900 -113.6250 223° Southwest 418 481 38,000  Level FlightAware ADS-B
Thu 06:34:34 PM 37.0060 -113.7230 223° Southwest 416 479 38,000  Level FlightAware ADS-B
Thu 06:35:29 PM 36.9280 -113.8140 223° Southwest 416 479 38,000  Level FlightAware ADS-B
Thu 06:36:24 PM 36.8510 -113.9030 223° Southwest 417 480 38,000  Level FlightAware ADS-B
Thu 06:37:14 PM 36.7790 -113.9860 223° Southwest 417 480 38,000  Level FlightAware ADS-B
Thu 06:38:04 PM 36.7090 -114.0670 223° Southwest 418 481 38,000  Level FlightAware ADS-B
Thu 06:39:04 PM 36.6230 -114.1640 222° Southwest 420 483 38,000  Level FlightAware ADS-B
Thu 06:39:54 PM 36.5520 -114.2470 223° Southwest 421 484 38,000  Level FlightAware ADS-B
Thu 06:40:34 PM 36.4940 -114.3130 222° Southwest 416 479 38,000  Level FlightAware ADS-B
Thu 06:41:29 PM 36.4150 -114.4030 223° Southwest 416 479 38,000  Level FlightAware ADS-B
Thu 06:42:14 PM 36.3510 -114.4750 222° Southwest 418 481 38,000  Level FlightAware ADS-B
Thu 06:42:54 PM 36.2940 -114.5390 222° Southwest 416 479 38,000  Level FlightAware ADS-B
Thu 06:43:24 PM 36.2540 -114.5930 227° Southwest 411 473 38,000  Level FlightAware ADS-B
Thu 06:43:49 PM 36.2360 -114.6380 244° Southwest 409 471 38,000  Level FlightAware ADS-B
Thu 06:44:24 PM 36.2230 -114.7300 260° West 411 473 38,000  Level FlightAware ADS-B
Thu 06:45:18 PM 36.2120 -114.8550 264° West 414 476 38,000  Level FlightAware ADS-B
Thu 06:46:08 PM 36.2000 -114.9730 263° West 412 474 38,000  Level FlightAware ADS-B
Thu 06:46:55 PM 36.1820 -115.0790 258° West 413 475 38,000  Level FlightAware ADS-B
Thu 06:47:24 PM 36.1460 -115.1320 230° Southwest 424 488 38,000  Level FlightAware ADS-B
Thu 06:47:54 PM 36.0910 -115.1620 204° Southwest 436 502 38,000  Level FlightAware ADS-B
Thu 06:48:53 PM 35.9780 -115.2010 196° South 438 504 38,000  Level FlightAware ADS-B
Thu 06:49:41 PM 35.8860 -115.2330 196° South 439 505 38,000  Level FlightAware ADS-B
Thu 06:50:30 PM 35.7910 -115.2670 196° South 441 507 38,000  Level FlightAware ADS-B
Thu 06:51:18 PM 35.6940 -115.3040 197° South 436 502 38,000  Level FlightAware ADS-B
Thu 06:51:39 PM 35.6580 -115.3330 213° Southwest 431 496 38,000  Level FlightAware ADS-B
Thu 06:52:34 PM 35.5840 -115.4280 226° Southwest 428 493 38,000  Level FlightAware ADS-B
Thu 06:53:23 PM 35.5190 -115.5150 227° Southwest 429 494 38,000  Level FlightAware ADS-B
Thu 06:53:49 PM 35.4830 -115.5630 227° Southwest 428 493 38,000  Level FlightAware ADS-B
Thu 06:54:46 PM 35.4060 -115.6650 227° Southwest 429 494 38,000 -360 Level FlightAware ADS-B
Thu 06:55:29 PM 35.3500 -115.7400 228° Southwest 426 490 37,400 -944 Descending FlightAware ADS-B
Thu 06:56:34 PM 35.2630 -115.8550 227° Southwest 423 487 36,300 -950 Descending FlightAware ADS-B
Thu 06:57:29 PM 35.1910 -115.9500 227° Southwest 410 472 35,500 -857 Descending FlightAware ADS-B
Thu 06:58:19 PM 35.1260 -116.0360 227° Southwest 405 466 34,800 -818 Descending FlightAware ADS-B
Thu 06:59:19 PM 35.0510 -116.1350 227° Southwest 403 464 34,000 -800 Descending FlightAware ADS-B
Thu 06:59:49 PM 35.0110 -116.1870 227° Southwest 400 460 33,600 -900 Descending FlightAware ADS-B
Thu 07:00:39 PM 34.9440 -116.2640 223° Southwest 398 458 32,800 -880 Descending FlightAware ADS-B
Thu 07:01:04 PM 34.9010 -116.2850 202° Southwest 413 475 32,500 -789 Descending FlightAware ADS-B
Thu 07:01:55 PM 34.8110 -116.3040 190° South 411 473 31,800 -780 Descending FlightAware ADS-B
Thu 07:02:44 PM 34.7160 -116.3230 189° South 407 468 31,200 -824 Descending FlightAware ADS-B
Thu 07:03:37 PM 34.6120 -116.3440 189° South 406 467 30,400 -815 Descending FlightAware ADS-B
Thu 07:04:05 PM 34.5610 -116.3530 188° South 404 465 30,100 -761 Descending FlightAware ADS-B
Thu 07:04:48 PM 34.4840 -116.3800 196° South 400 460 29,500 -732 Descending FlightAware ADS-B
Thu 07:05:27 PM 34.4390 -116.4360 226° Southwest 370 426 29,100 -636 Descending FlightAware ADS-B
Thu 07:05:54 PM 34.4130 -116.4870 238° Southwest 368 423 28,800 -679 Descending FlightAware ADS-B
Thu 07:06:20 PM 34.3920 -116.5320 241° Southwest 367 422 28,500 -795 Descending FlightAware ADS-B
Thu 07:07:17 PM 34.3430 -116.6330 240° Southwest 357 411 27,700 -1,154 Descending FlightAware ADS-B
Thu 07:07:38 PM 34.3266 -116.6661 239° Southwest 354 407 27,000 -1,644 Descending FlightAware ADS-B
Thu 07:08:30 PM 34.2822 -116.7565 239° Southwest 349 402 25,700 -1,882 Descending FlightAware ADS-B
Thu 07:09:20 PM 34.2401 -116.8418 239° Southwest 355 409 23,800 -2,000 Descending FlightAware ADS-B
Thu 07:09:51 PM 34.2149 -116.8932 239° Southwest 350 403 23,000 -1,704 Descending FlightAware ADS-B
Thu 07:10:41 PM 34.1745 -116.9747 239° Southwest 344 396 21,500 -1,733 Descending FlightAware ADS-B
Thu 07:11:21 PM 34.1476 -117.0297 239° Southwest 340 391 20,400 -1,685 Descending FlightAware ADS-B
Thu 07:12:10 PM 34.1036 -117.1184 239° Southwest 335 386 19,000 -1,650 Descending FlightAware ADS-B
Thu 07:12:41 PM 34.0787 -117.1728 241° Southwest 329 379 18,200 -1,377 Descending FlightAware ADS-B
Thu 07:13:11 PM 34.0588 -117.2191 243° Southwest 322 371 17,600 -1,345 Descending FlightAware ADS-B
Thu 07:13:39 PM 34.0432 -117.2614 246° West 310 357 16,900 -1,371 Descending FlightAware ADS-B
Thu 07:14:21 PM 34.0336 -117.3356 261° West 299 344 16,000 -1,355 Descending FlightAware ADS-B
Thu 07:15:43 PM 34.0220 -117.4660 264° West 295 339 14,100 -1,395 Descending FlightAware ADS-B
Thu 07:16:30 PM 34.0150 -117.5440 264° West 290 334 13,000 -1,091 Descending FlightAware ADS-B
Thu 07:17:33 PM 34.0070 -117.6390 264° West 246 283 12,100 -1,097 Descending FlightAware ADS-B
Thu 07:18:03 PM 34.0030 -117.6800 263° West 242 278 11,300 -1,579 Descending FlightAware ADS-B
Thu 07:18:49 PM 33.9980 -117.7430 265° West 244 281 10,100 -1,200 Descending FlightAware ADS-B
Thu 07:19:18 PM 33.9940 -117.7810 263° West 239 275 9,800 -931 Descending FlightAware ADS-B
Thu 07:19:47 PM 33.9910 -117.8190 265° West 242 278 9,200 -1,269 Descending FlightAware ADS-B
Thu 07:20:10 PM 33.9880 -117.8500 263° West 239 275 8,700 -1,294 Descending FlightAware ADS-B
Thu 07:20:38 PM 33.9850 -117.8880 265° West 235 270 8,100 -1,222 Descending FlightAware ADS-B
Thu 07:21:04 PM 33.9820 -117.9210 264° West 231 266 7,600 -1,158 Descending FlightAware ADS-B
Thu 07:21:35 PM 33.9790 -117.9610 265° West 230 265 7,000 -1,138 Descending FlightAware ADS-B
Thu 07:22:02 PM 33.9760 -117.9940 264° West 213 245 6,500 -1,053 Descending FlightAware ADS-B
Thu 07:22:32 PM 33.9730 -118.0260 264° West 202 232 6,000 -1,019 Descending FlightAware ADS-B
Thu 07:22:55 PM 33.9710 -118.0530 265° West 197 227 5,600 -980 Descending FlightAware ADS-B
Thu 07:23:21 PM 33.9680 -118.0810 263° West 198 228 5,200 -894 Descending FlightAware ADS-B
Thu 07:23:42 PM 33.9660 -118.1040 264° West 191 220 4,900 -857 Descending FlightAware ADS-B
Thu 07:24:10 PM 33.9640 -118.1330 265° West 181 208 4,500 -923 Descending FlightAware ADS-B
Thu 07:24:34 PM 33.9620 -118.1570 264° West 174 200 4,100 -1,000 Descending FlightAware ADS-B
Thu 07:24:58 PM 33.9600 -118.1800 264° West 166 191 3,700 -875 Descending FlightAware ADS-B
Thu 07:25:22 PM 33.9580 -118.2010 263° West 176 203 3,400 -857 Descending FlightAware ADS-B
Thu 07:25:54 PM 33.9550 -118.2330 264° West 180 207 2,900 -923 Descending FlightAware ADS-B
Thu 07:26:27 PM 33.9520 -118.2660 264° West 162 186 2,400 -828 Descending FlightAware ADS-B
Thu 07:26:52 PM 33.9510 -118.2840 266° West 150 173 2,100 -764 Descending FlightAware ADS-B
Thu 07:27:22 PM 33.9490 -118.3090 264° West 130 150 1,700 -800 Descending FlightAware ADS-B
Thu 07:27:52 PM 33.9470 -118.3290 263° West 127 146 1,300 -712 Descending FlightAware ADS-B
Thu 07:28:21 PM 33.9450 -118.3500 263° West 126 145 1,000 -646 Descending FlightAware ADS-B
Thu 07:28:57 PM 33.9430 -118.3750 264° West 124 143 600 -387 Descending FlightAware ADS-B
Thu 07:29:23 PM 33.9420 -118.3900 265° West 124 143 600 -261 Level FlightAware ADS-B
Thu 07:30:29 PM 33.9361 -118.4061 265° West 127 146 200 -364 Descending Los Angeles Center

Login

Don't have an account? Register now (free) for customized features, flight alerts, and more!